createdAt,value
2017-09-24T00:00:06.719Z,13.8
2017-09-24T00:05:06.477Z,13.7
2017-09-24T00:10:06.242Z,13.8
2017-09-24T00:15:06.440Z,13.8
2017-09-24T00:20:06.260Z,13.8
2017-09-24T00:25:06.342Z,13.8
2017-09-24T00:30:07.008Z,13.8
2017-09-24T00:35:06.362Z,13.9
2017-09-24T00:40:07.144Z,13.9
2017-09-24T00:45:07.102Z,13.9
2017-09-24T00:50:06.882Z,13.9
2017-09-24T00:55:06.608Z,13.9
2017-09-24T01:00:06.312Z,13.9
2017-09-24T01:05:06.924Z,14
2017-09-24T01:10:06.610Z,14
2017-09-24T01:15:06.704Z,14
2017-09-24T01:20:06.489Z,14
2017-09-24T01:25:06.850Z,14
2017-09-24T01:30:06.622Z,14
2017-09-24T01:35:06.978Z,14
2017-09-24T01:40:06.654Z,14
2017-09-24T01:45:06.708Z,14
2017-09-24T01:50:06.427Z,14
2017-09-24T01:55:06.390Z,14
2017-09-24T02:00:07.137Z,14.1
2017-09-24T02:05:06.230Z,14.1
2017-09-24T02:10:06.984Z,14.1
2017-09-24T02:15:06.923Z,14.1
2017-09-24T02:20:06.850Z,14.1
2017-09-24T02:25:06.807Z,14.1
2017-09-24T02:30:07.055Z,14.1
2017-09-24T02:35:07.074Z,14.1
2017-09-24T02:40:06.871Z,14.2
2017-09-24T02:45:06.484Z,14.2
2017-09-24T02:50:06.417Z,14.2
2017-09-24T02:55:06.267Z,14.2
2017-09-24T03:00:06.251Z,14.3
2017-09-24T03:05:07.056Z,14.3
2017-09-24T03:10:06.803Z,14.3
2017-09-24T03:15:06.632Z,14.3
2017-09-24T03:20:06.345Z,14.4
2017-09-24T03:25:07.148Z,14.4
2017-09-24T03:30:07.149Z,14.4
2017-09-24T03:35:06.887Z,14.4
2017-09-24T03:40:06.589Z,14.4
2017-09-24T03:45:06.765Z,14.4
2017-09-24T03:50:06.478Z,14.4
2017-09-24T03:55:07.150Z,14.4
2017-09-24T04:00:07.055Z,14.4
2017-09-24T04:05:06.799Z,14.4
2017-09-24T04:10:06.539Z,14.4
2017-09-24T04:15:06.157Z,14.5
2017-09-24T04:20:07.057Z,14.5
2017-09-24T04:25:06.385Z,14.5
2017-09-24T04:30:07.161Z,14.5
2017-09-24T04:35:06.851Z,14.5
2017-09-24T04:40:06.539Z,14.6
2017-09-24T04:45:07.077Z,14.6
2017-09-24T04:50:06.707Z,14.6
2017-09-24T04:55:06.433Z,14.6
2017-09-24T05:00:06.339Z,14.6
2017-09-24T05:05:06.685Z,14.6
2017-09-24T05:10:06.445Z,14.6
2017-09-24T05:15:06.979Z,14.7
2017-09-24T05:20:06.710Z,14.7
2017-09-24T05:25:07.042Z,14.7
2017-09-24T05:30:07.124Z,14.8
2017-09-24T05:35:06.800Z,14.8
2017-09-24T05:40:07.006Z,14.8
2017-09-24T05:45:06.630Z,14.8
2017-09-24T05:50:06.531Z,14.9
2017-09-24T05:55:07.130Z,14.9
2017-09-24T06:00:07.072Z,15
2017-09-24T06:05:06.603Z,15
2017-09-24T06:10:06.661Z,15
2017-09-24T06:15:06.372Z,15
2017-09-24T06:20:07.075Z,15
2017-09-24T06:25:06.790Z,15
2017-09-24T06:30:06.769Z,15
2017-09-24T06:35:06.576Z,15
2017-09-24T06:40:06.325Z,15
2017-09-24T06:45:06.395Z,15
2017-09-24T06:50:06.302Z,15
2017-09-24T06:55:06.400Z,15
2017-09-24T07:00:06.327Z,15
2017-09-24T07:05:06.672Z,15
2017-09-24T07:10:06.759Z,15
2017-09-24T07:15:06.329Z,15
2017-09-24T07:20:06.998Z,15
2017-09-24T07:25:06.370Z,15
2017-09-24T07:30:06.383Z,15
2017-09-24T07:35:06.802Z,15
2017-09-24T07:40:06.530Z,15
2017-09-24T07:45:06.841Z,15
2017-09-24T07:50:06.692Z,15
2017-09-24T07:55:06.308Z,15
2017-09-24T08:00:06.201Z,15
2017-09-24T08:05:06.778Z,15
2017-09-24T08:10:06.439Z,15
2017-09-24T08:15:06.569Z,15
2017-09-24T08:20:06.401Z,15
2017-09-24T08:25:06.844Z,15
2017-09-24T08:30:06.830Z,15
2017-09-24T08:35:06.221Z,15
2017-09-24T08:40:07.019Z,15
2017-09-24T08:45:06.291Z,15.1
2017-09-24T08:50:06.262Z,15.1
2017-09-24T08:55:06.525Z,15.1
2017-09-24T09:00:06.490Z,15
2017-09-24T09:05:06.490Z,15.1
2017-09-24T09:10:07.149Z,15.1
2017-09-24T09:15:06.828Z,15.1
2017-09-24T09:20:06.587Z,15.1
2017-09-24T09:25:06.262Z,15.1
2017-09-24T09:30:06.773Z,15
2017-09-24T09:35:06.624Z,15.3
2017-09-24T09:40:06.426Z,15.3
2017-09-24T09:45:06.718Z,15.4
2017-09-24T09:50:06.621Z,15.3
2017-09-24T09:55:06.586Z,15.5
2017-09-24T10:00:06.863Z,15.5
2017-09-24T10:05:07.113Z,15.6
2017-09-24T10:10:06.784Z,15.6
2017-09-24T10:15:06.935Z,15.6
2017-09-24T10:20:06.644Z,15.7
2017-09-24T10:25:06.576Z,15.7
2017-09-24T10:30:06.600Z,15.7
2017-09-24T10:35:07.057Z,15.9
2017-09-24T10:40:06.803Z,16
2017-09-24T10:45:06.945Z,16
2017-09-24T10:50:06.944Z,16
2017-09-24T10:55:07.074Z,16.1
2017-09-24T11:00:06.364Z,16.1
2017-09-24T11:05:06.602Z,16.1
2017-09-24T11:10:06.216Z,16.1
2017-09-24T11:15:06.189Z,16.2
2017-09-24T11:20:06.926Z,16.2
2017-09-24T11:25:06.342Z,16.3
2017-09-24T11:30:06.946Z,16.3
2017-09-24T11:35:06.180Z,16.3
2017-09-24T11:40:06.996Z,16.4
2017-09-24T11:45:06.359Z,16.6
2017-09-24T11:50:06.348Z,16.7
2017-09-24T11:55:06.839Z,16.7
2017-09-24T12:00:06.227Z,16.8
2017-09-24T12:05:06.800Z,17
2017-09-24T12:10:06.424Z,17
2017-09-24T12:15:06.901Z,17.1
2017-09-24T12:20:06.661Z,17.1
2017-09-24T12:25:06.890Z,17.1
2017-09-24T12:30:06.440Z,17.4
2017-09-24T12:35:06.190Z,17.4
2017-09-24T12:40:06.938Z,17.4
2017-09-24T12:45:06.839Z,17.3
2017-09-24T12:50:06.882Z,17.4
2017-09-24T12:55:06.616Z,17.4
2017-09-24T13:00:06.814Z,17.4
2017-09-24T13:05:06.995Z,17.4
2017-09-24T13:10:06.708Z,17.4
2017-09-24T13:15:06.853Z,17.4
2017-09-24T13:20:06.538Z,17.4
2017-09-24T13:25:06.632Z,17.5
2017-09-24T13:30:06.969Z,17.5
2017-09-24T13:35:06.290Z,17.5
2017-09-24T13:40:06.960Z,17.6
2017-09-24T13:45:06.715Z,17.6
2017-09-24T13:50:06.606Z,17.6
2017-09-24T13:55:06.494Z,17.6
2017-09-24T14:00:06.710Z,17.6
2017-09-24T14:05:06.270Z,17.6
2017-09-24T14:10:06.863Z,17.6
2017-09-24T14:15:06.587Z,17.6
2017-09-24T14:20:06.260Z,17.6
2017-09-24T14:25:07.006Z,17.6
2017-09-24T14:30:06.947Z,17.6
2017-09-24T14:35:07.103Z,17.6
2017-09-24T14:40:06.732Z,17.6
2017-09-24T14:45:06.405Z,17.6
2017-09-24T14:50:06.352Z,17.6
2017-09-24T14:55:06.351Z,17.5
2017-09-24T15:00:06.188Z,17.5
2017-09-24T15:05:06.624Z,17.5
2017-09-24T15:10:06.221Z,17.5
2017-09-24T15:15:06.177Z,17.5
2017-09-24T15:20:06.237Z,17.5
2017-09-24T15:25:06.664Z,17.5
2017-09-24T15:30:06.620Z,17.4
2017-09-24T15:35:06.512Z,17.4
2017-09-24T15:40:06.205Z,17.4
2017-09-24T15:45:06.250Z,17.4
2017-09-24T15:50:07.115Z,17.4
2017-09-24T15:55:07.111Z,17.5
2017-09-24T16:00:07.051Z,17.5
2017-09-24T16:05:07.092Z,17.5
2017-09-24T16:10:06.809Z,17.5
2017-09-24T16:15:06.188Z,17.5
2017-09-24T16:20:06.826Z,17.4
2017-09-24T16:25:06.805Z,17.4
2017-09-24T16:30:07.001Z,17.4
2017-09-24T16:35:06.539Z,17.3
2017-09-24T16:40:06.403Z,17.2
2017-09-24T16:45:06.955Z,17.2
2017-09-24T16:50:06.881Z,17.1
2017-09-24T16:55:06.604Z,17
2017-09-24T17:00:06.521Z,17
2017-09-24T17:05:06.704Z,17
2017-09-24T17:10:06.308Z,16.8
2017-09-24T17:15:06.803Z,16.7
2017-09-24T17:20:06.872Z,16.7
2017-09-24T17:25:06.904Z,16.6
2017-09-24T17:30:07.132Z,16.6
2017-09-24T17:35:06.854Z,16.5
2017-09-24T17:40:06.909Z,16.5
2017-09-24T17:45:07.194Z,16.5
2017-09-24T17:50:07.039Z,16.5
2017-09-24T17:55:06.611Z,16.5
2017-09-24T18:00:06.685Z,16.5
2017-09-24T18:05:06.690Z,16.5
2017-09-24T18:10:06.397Z,16.4
2017-09-24T18:15:07.173Z,16.4
2017-09-24T18:20:07.034Z,16.4
2017-09-24T18:25:06.346Z,16.4
2017-09-24T18:30:06.753Z,16.3
2017-09-24T18:35:06.433Z,16.3
2017-09-24T18:40:07.183Z,16.3
2017-09-24T18:45:07.066Z,16.3
2017-09-24T18:50:06.912Z,16.1
2017-09-24T18:55:07.056Z,16.1
2017-09-24T19:00:07.045Z,16
2017-09-24T19:05:06.536Z,16
2017-09-24T19:10:07.113Z,16
2017-09-24T19:15:06.548Z,16
2017-09-24T19:20:06.726Z,16
2017-09-24T19:25:06.406Z,16
2017-09-24T19:30:06.360Z,16
2017-09-24T19:35:06.553Z,16
2017-09-24T19:40:06.275Z,16
2017-09-24T19:45:06.402Z,16
2017-09-24T19:50:01.268Z,16
2017-09-24T19:55:02.638Z,16
2017-09-24T20:00:01.940Z,16
2017-09-24T20:05:01.299Z,16
2017-09-24T20:10:02.337Z,16
2017-09-24T20:15:01.569Z,16
2017-09-24T20:20:01.770Z,16
2017-09-24T20:25:01.199Z,16
2017-09-24T20:30:01.630Z,16
2017-09-24T20:35:01.474Z,16
2017-09-24T20:40:01.830Z,16
2017-09-24T20:45:01.763Z,15.9
2017-09-24T20:50:01.476Z,15.9
2017-09-24T20:55:01.353Z,15.9
2017-09-24T21:00:01.968Z,15.9
2017-09-24T21:05:01.942Z,15.9
2017-09-24T21:10:04.783Z,15.9
2017-09-24T21:15:02.332Z,15.8
2017-09-24T21:20:01.214Z,15.8
2017-09-24T21:25:02.182Z,15.8
2017-09-24T21:30:01.364Z,15.8
2017-09-24T21:35:02.399Z,15.8
2017-09-24T21:40:01.172Z,15.8
2017-09-24T21:45:02.014Z,15.8
2017-09-24T21:50:02.409Z,15.8
2017-09-24T21:55:01.435Z,15.8
2017-09-24T22:00:01.938Z,15.8
2017-09-24T22:05:01.872Z,15.8
2017-09-24T22:10:01.921Z,15.8
2017-09-24T22:15:01.437Z,15.8
2017-09-24T22:20:01.233Z,15.8
2017-09-24T22:25:01.475Z,15.8
2017-09-24T22:30:01.296Z,15.7
2017-09-24T22:35:04.642Z,15.7
2017-09-24T22:40:01.566Z,15.7
2017-09-24T22:45:01.706Z,15.7
2017-09-24T22:50:01.572Z,15.7
2017-09-24T22:55:01.245Z,15.6
2017-09-24T23:00:01.680Z,15.6
2017-09-24T23:05:01.591Z,15.6
2017-09-24T23:10:01.408Z,15.6
2017-09-24T23:15:02.060Z,15.6
2017-09-24T23:20:01.707Z,15.6
2017-09-24T23:25:01.929Z,15.6
2017-09-24T23:30:02.312Z,15.5
2017-09-24T23:35:02.056Z,15.5
2017-09-24T23:40:01.914Z,15.6
2017-09-24T23:45:02.386Z,15.6
2017-09-24T23:50:02.024Z,15.5
2017-09-24T23:55:01.242Z,15.5
